sensor_id;sensor_type;location;lat;lon;timestamp;temperature;humidity
35593;DHT22;64447;52.140;5.602;2022-11-12T00:00:40;8.90;79.80
35593;DHT22;64447;52.140;5.602;2022-11-12T00:03:06;9.00;80.60
35593;DHT22;64447;52.140;5.602;2022-11-12T00:05:32;9.30;81.30
35593;DHT22;64447;52.140;5.602;2022-11-12T00:07:58;8.70;81.50
35593;DHT22;64447;52.140;5.602;2022-11-12T00:10:24;8.70;80.90
35593;DHT22;64447;52.140;5.602;2022-11-12T00:12:50;8.60;80.50
35593;DHT22;64447;52.140;5.602;2022-11-12T00:15:16;8.70;80.50
35593;DHT22;64447;52.140;5.602;2022-11-12T00:17:41;8.70;80.50
35593;DHT22;64447;52.140;5.602;2022-11-12T00:20:08;8.70;80.60
35593;DHT22;64447;52.140;5.602;2022-11-12T00:22:34;8.60;80.40
35593;DHT22;64447;52.140;5.602;2022-11-12T00:24:59;8.60;80.40
35593;DHT22;64447;52.140;5.602;2022-11-12T00:27:25;8.60;80.40
35593;DHT22;64447;52.140;5.602;2022-11-12T00:29:50;8.60;80.40
35593;DHT22;64447;52.140;5.602;2022-11-12T00:32:16;8.60;80.30
35593;DHT22;64447;52.140;5.602;2022-11-12T00:34:42;8.60;80.20
35593;DHT22;64447;52.140;5.602;2022-11-12T00:37:07;8.50;79.40
35593;DHT22;64447;52.140;5.602;2022-11-12T00:42:55;8.40;80.00
35593;DHT22;64447;52.140;5.602;2022-11-12T00:45:21;8.40;80.30
35593;DHT22;64447;52.140;5.602;2022-11-12T00:47:47;8.60;80.80
35593;DHT22;64447;52.140;5.602;2022-11-12T00:50:13;8.70;80.50
35593;DHT22;64447;52.140;5.602;2022-11-12T00:52:40;8.30;80.10
35593;DHT22;64447;52.140;5.602;2022-11-12T00:55:06;8.30;80.40
35593;DHT22;64447;52.140;5.602;2022-11-12T00:57:32;8.30;80.70
35593;DHT22;64447;52.140;5.602;2022-11-12T00:59:57;8.20;80.60
35593;DHT22;64447;52.140;5.602;2022-11-12T01:02:23;8.20;80.30
35593;DHT22;64447;52.140;5.602;2022-11-12T01:04:48;8.30;80.40
35593;DHT22;64447;52.140;5.602;2022-11-12T01:07:14;8.30;80.00
35593;DHT22;64447;52.140;5.602;2022-11-12T10:06:04;9.20;88.70
35593;DHT22;64447;52.140;5.602;2022-11-12T10:17:10;9.50;88.60
35593;DHT22;64447;52.140;5.602;2022-11-12T10:24:42;9.80;88.00
35593;DHT22;64447;52.140;5.602;2022-11-12T10:27:33;9.80;87.70
35593;DHT22;64447;52.140;5.602;2022-11-12T10:30:05;10.00;87.40
35593;DHT22;64447;52.140;5.602;2022-11-12T10:32:33;10.00;87.20
35593;DHT22;64447;52.140;5.602;2022-11-12T10:35:00;10.10;87.60
35593;DHT22;64447;52.140;5.602;2022-11-12T10:37:34;10.10;87.20
35593;DHT22;64447;52.140;5.602;2022-11-12T10:43:25;10.20;87.70
35593;DHT22;64447;52.140;5.602;2022-11-12T10:45:51;10.20;87.30
35593;DHT22;64447;52.140;5.602;2022-11-12T10:48:34;10.30;87.10
35593;DHT22;64447;52.140;5.602;2022-11-12T10:51:00;10.40;87.10
35593;DHT22;64447;52.140;5.602;2022-11-12T10:53:33;10.50;86.60
35593;DHT22;64447;52.140;5.602;2022-11-12T10:59:22;10.70;86.20
35593;DHT22;64447;52.140;5.602;2022-11-12T11:01:57;10.80;86.70
35593;DHT22;64447;52.140;5.602;2022-11-12T11:07:15;10.80;85.00
35593;DHT22;64447;52.140;5.602;2022-11-12T11:09:55;10.90;84.70
35593;DHT22;64447;52.140;5.602;2022-11-12T11:15:58;11.10;84.40
35593;DHT22;64447;52.140;5.602;2022-11-12T11:18:24;11.10;84.20
35593;DHT22;64447;52.140;5.602;2022-11-12T11:24:03;11.30;84.20
35593;DHT22;64447;52.140;5.602;2022-11-12T11:32:33;11.50;82.90
35593;DHT22;64447;52.140;5.602;2022-11-12T11:35:20;11.50;84.10
35593;DHT22;64447;52.140;5.602;2022-11-12T11:40:38;11.70;82.60
35593;DHT22;64447;52.140;5.602;2022-11-12T11:43:27;11.70;82.10
35593;DHT22;64447;52.140;5.602;2022-11-12T11:47:08;11.80;81.90
35593;DHT22;64447;52.140;5.602;2022-11-12T11:52:08;11.90;82.10
35593;DHT22;64447;52.140;5.602;2022-11-12T12:00:45;12.00;80.00
35593;DHT22;64447;52.140;5.602;2022-11-12T12:03:29;12.10;80.40
35593;DHT22;64447;52.140;5.602;2022-11-12T12:06:27;12.40;80.80
35593;DHT22;64447;52.140;5.602;2022-11-12T12:09:06;12.20;81.50
35593;DHT22;64447;52.140;5.602;2022-11-12T12:19:07;12.40;80.80
35593;DHT22;64447;52.140;5.602;2022-11-12T12:21:39;12.40;80.90
35593;DHT22;64447;52.140;5.602;2022-11-12T12:24:18;12.50;81.40
35593;DHT22;64447;52.140;5.602;2022-11-12T12:26:53;12.50;80.90
35593;DHT22;64447;52.140;5.602;2022-11-12T12:29:38;12.50;80.40
35593;DHT22;64447;52.140;5.602;2022-11-12T12:34:44;12.60;81.20
35593;DHT22;64447;52.140;5.602;2022-11-12T12:37:20;12.60;81.20
35593;DHT22;64447;52.140;5.602;2022-11-12T12:40:20;12.50;79.30
35593;DHT22;64447;52.140;5.602;2022-11-12T12:42:54;12.60;80.40
35593;DHT22;64447;52.140;5.602;2022-11-12T12:45:43;12.70;81.30
35593;DHT22;64447;52.140;5.602;2022-11-12T12:48:29;12.70;81.40
35593;DHT22;64447;52.140;5.602;2022-11-12T12:50:56;12.70;80.90
35593;DHT22;64447;52.140;5.602;2022-11-12T12:55:59;12.80;80.70
35593;DHT22;64447;52.140;5.602;2022-11-12T13:04:06;12.90;80.10
35593;DHT22;64447;52.140;5.602;2022-11-12T13:17:02;12.70;81.20
35593;DHT22;64447;52.140;5.602;2022-11-12T13:37:46;13.40;80.40
35593;DHT22;64447;52.140;5.602;2022-11-12T13:42:46;13.60;79.90
35593;DHT22;64447;52.140;5.602;2022-11-12T13:45:16;13.60;79.20
35593;DHT22;64447;52.140;5.602;2022-11-12T13:47:43;13.60;79.40
35593;DHT22;64447;52.140;5.602;2022-11-12T13:50:13;13.70;79.90
35593;DHT22;64447;52.140;5.602;2022-11-12T13:52:40;13.60;79.80
35593;DHT22;64447;52.140;5.602;2022-11-12T13:55:23;13.50;80.00
35593;DHT22;64447;52.140;5.602;2022-11-12T13:57:51;13.60;80.20
35593;DHT22;64447;52.140;5.602;2022-11-12T14:00:23;13.70;79.90
35593;DHT22;64447;52.140;5.602;2022-11-12T14:03:01;13.90;80.00
35593;DHT22;64447;52.140;5.602;2022-11-12T14:05:29;13.90;79.20
35593;DHT22;64447;52.140;5.602;2022-11-12T14:08:20;13.90;78.70
35593;DHT22;64447;52.140;5.602;2022-11-12T14:11:17;13.90;78.70
35593;DHT22;64447;52.140;5.602;2022-11-12T14:16:40;14.00;78.40
35593;DHT22;64447;52.140;5.602;2022-11-12T14:19:40;14.10;78.50
35593;DHT22;64447;52.140;5.602;2022-11-12T14:22:14;14.10;78.50
35593;DHT22;64447;52.140;5.602;2022-11-12T14:24:41;14.00;78.70
35593;DHT22;64447;52.140;5.602;2022-11-12T14:30:15;14.20;78.50
35593;DHT22;64447;52.140;5.602;2022-11-12T14:32:46;14.20;77.90
35593;DHT22;64447;52.140;5.602;2022-11-12T14:35:28;14.00;78.10
35593;DHT22;64447;52.140;5.602;2022-11-12T14:37:58;13.80;78.00
35593;DHT22;64447;52.140;5.602;2022-11-12T14:40:27;13.90;78.70
35593;DHT22;64447;52.140;5.602;2022-11-12T14:42:53;13.90;78.60
35593;DHT22;64447;52.140;5.602;2022-11-12T14:45:20;14.00;78.40
35593;DHT22;64447;52.140;5.602;2022-11-12T14:47:49;14.00;78.10
35593;DHT22;64447;52.140;5.602;2022-11-12T14:52:48;14.00;78.30
35593;DHT22;64447;52.140;5.602;2022-11-12T14:55:20;13.90;78.50
35593;DHT22;64447;52.140;5.602;2022-11-12T14:57:47;14.00;78.30
35593;DHT22;64447;52.140;5.602;2022-11-12T15:03:00;14.10;78.10
35593;DHT22;64447;52.140;5.602;2022-11-12T15:05:26;14.10;78.10
35593;DHT22;64447;52.140;5.602;2022-11-12T15:08:03;14.10;78.20
35593;DHT22;64447;52.140;5.602;2022-11-12T15:10:43;14.20;78.20
35593;DHT22;64447;52.140;5.602;2022-11-12T15:13:14;14.20;78.30
35593;DHT22;64447;52.140;5.602;2022-11-12T15:15:53;14.20;79.10
35593;DHT22;64447;52.140;5.602;2022-11-12T15:18:23;14.20;78.40
35593;DHT22;64447;52.140;5.602;2022-11-12T15:21:23;14.10;78.50
35593;DHT22;64447;52.140;5.602;2022-11-12T15:23:52;14.10;78.70
35593;DHT22;64447;52.140;5.602;2022-11-12T15:26:32;14.10;78.30
35593;DHT22;64447;52.140;5.602;2022-11-12T15:29:11;14.00;78.00
35593;DHT22;64447;52.140;5.602;2022-11-12T15:31:48;13.90;77.50
35593;DHT22;64447;52.140;5.602;2022-11-12T15:37:08;13.60;78.00
35593;DHT22;64447;52.140;5.602;2022-11-12T15:39:40;13.50;77.90
35593;DHT22;64447;52.140;5.602;2022-11-12T15:44:55;13.60;77.30
35593;DHT22;64447;52.140;5.602;2022-11-12T15:47:21;13.60;76.90
35593;DHT22;64447;52.140;5.602;2022-11-12T15:52:14;13.60;76.80
35593;DHT22;64447;52.140;5.602;2022-11-12T15:54:39;13.60;76.60
35593;DHT22;64447;52.140;5.602;2022-11-12T15:57:09;13.50;77.00
35593;DHT22;64447;52.140;5.602;2022-11-12T15:59:36;13.40;77.10
35593;DHT22;64447;52.140;5.602;2022-11-12T16:02:01;13.40;77.20
35593;DHT22;64447;52.140;5.602;2022-11-12T16:04:27;13.40;77.10
35593;DHT22;64447;52.140;5.602;2022-11-12T16:06:52;13.50;77.20
35593;DHT22;64447;52.140;5.602;2022-11-12T16:09:18;13.30;77.40
35593;DHT22;64447;52.140;5.602;2022-11-12T16:11:44;13.20;78.20
35593;DHT22;64447;52.140;5.602;2022-11-12T16:14:11;13.30;78.20
35593;DHT22;64447;52.140;5.602;2022-11-12T16:16:38;13.30;78.00
35593;DHT22;64447;52.140;5.602;2022-11-12T16:19:11;13.40;78.30
35593;DHT22;64447;52.140;5.602;2022-11-12T16:21:38;13.50;78.50
35593;DHT22;64447;52.140;5.602;2022-11-12T16:24:04;13.20;78.40
35593;DHT22;64447;52.140;5.602;2022-11-12T16:26:31;13.20;78.50
35593;DHT22;64447;52.140;5.602;2022-11-12T16:28:57;12.90;79.20
35593;DHT22;64447;52.140;5.602;2022-11-12T16:31:24;12.80;80.30
35593;DHT22;64447;52.140;5.602;2022-11-12T16:33:49;12.90;79.60
35593;DHT22;64447;52.140;5.602;2022-11-12T16:36:15;12.90;79.10
35593;DHT22;64447;52.140;5.602;2022-11-12T16:38:42;13.00;78.90
35593;DHT22;64447;52.140;5.602;2022-11-12T16:41:11;13.10;78.50
35593;DHT22;64447;52.140;5.602;2022-11-12T16:43:38;12.90;78.70
35593;DHT22;64447;52.140;5.602;2022-11-12T16:46:20;12.90;79.00
35593;DHT22;64447;52.140;5.602;2022-11-12T16:48:46;12.90;78.70
35593;DHT22;64447;52.140;5.602;2022-11-12T16:51:17;12.90;78.50
35593;DHT22;64447;52.140;5.602;2022-11-12T16:53:43;13.00;78.30
35593;DHT22;64447;52.140;5.602;2022-11-12T16:56:19;13.00;78.00
35593;DHT22;64447;52.140;5.602;2022-11-12T16:58:45;13.00;77.90
35593;DHT22;64447;52.140;5.602;2022-11-12T17:01:27;13.10;77.80
35593;DHT22;64447;52.140;5.602;2022-11-12T17:03:54;13.00;78.70
35593;DHT22;64447;52.140;5.602;2022-11-12T17:06:21;12.90;77.70
35593;DHT22;64447;52.140;5.602;2022-11-12T17:08:47;13.30;77.80
35593;DHT22;64447;52.140;5.602;2022-11-12T17:11:14;12.90;77.70
35593;DHT22;64447;52.140;5.602;2022-11-12T17:13:40;12.90;77.60
35593;DHT22;64447;52.140;5.602;2022-11-12T17:16:06;12.90;77.70
35593;DHT22;64447;52.140;5.602;2022-11-12T17:18:32;12.90;77.70
35593;DHT22;64447;52.140;5.602;2022-11-12T17:21:15;12.90;77.80
35593;DHT22;64447;52.140;5.602;2022-11-12T17:23:41;12.80;77.80
35593;DHT22;64447;52.140;5.602;2022-11-12T17:26:10;12.80;77.80
35593;DHT22;64447;52.140;5.602;2022-11-12T17:28:36;12.80;77.70
35593;DHT22;64447;52.140;5.602;2022-11-12T17:31:08;12.70;77.70
35593;DHT22;64447;52.140;5.602;2022-11-12T17:33:40;12.70;77.70
35593;DHT22;64447;52.140;5.602;2022-11-12T17:36:08;12.70;77.80
35593;DHT22;64447;52.140;5.602;2022-11-12T17:38:34;12.70;77.90
35593;DHT22;64447;52.140;5.602;2022-11-12T17:41:01;12.60;78.00
35593;DHT22;64447;52.140;5.602;2022-11-12T17:43:26;12.50;78.00
35593;DHT22;64447;52.140;5.602;2022-11-12T17:45:53;12.90;78.20
35593;DHT22;64447;52.140;5.602;2022-11-12T17:48:20;12.50;77.70
35593;DHT22;64447;52.140;5.602;2022-11-12T17:50:46;12.50;77.80
35593;DHT22;64447;52.140;5.602;2022-11-12T17:53:12;12.50;77.90
35593;DHT22;64447;52.140;5.602;2022-11-12T17:55:37;12.40;77.90
35593;DHT22;64447;52.140;5.602;2022-11-12T17:58:03;12.30;78.00
35593;DHT22;64447;52.140;5.602;2022-11-12T18:00:29;12.30;78.20
35593;DHT22;64447;52.140;5.602;2022-11-12T18:02:55;12.30;78.00
35593;DHT22;64447;52.140;5.602;2022-11-12T18:05:21;12.20;78.00
35593;DHT22;64447;52.140;5.602;2022-11-12T18:07:46;12.20;78.10
35593;DHT22;64447;52.140;5.602;2022-11-12T18:10:12;12.20;78.10
35593;DHT22;64447;52.140;5.602;2022-11-12T18:12:38;12.10;78.00
35593;DHT22;64447;52.140;5.602;2022-11-12T18:15:04;12.10;78.00
35593;DHT22;64447;52.140;5.602;2022-11-12T18:17:32;12.10;78.10
35593;DHT22;64447;52.140;5.602;2022-11-12T18:19:57;12.60;78.40
35593;DHT22;64447;52.140;5.602;2022-11-12T18:22:23;12.00;78.10
35593;DHT22;64447;52.140;5.602;2022-11-12T18:24:48;12.00;78.20
35593;DHT22;64447;52.140;5.602;2022-11-12T18:27:15;11.90;78.10
35593;DHT22;64447;52.140;5.602;2022-11-12T18:29:40;11.90;78.20
35593;DHT22;64447;52.140;5.602;2022-11-12T18:32:06;11.80;78.20
35593;DHT22;64447;52.140;5.602;2022-11-12T18:34:32;11.80;78.30
35593;DHT22;64447;52.140;5.602;2022-11-12T18:36:58;11.80;78.20
35593;DHT22;64447;52.140;5.602;2022-11-12T18:39:23;11.80;78.10
35593;DHT22;64447;52.140;5.602;2022-11-12T18:41:51;12.00;78.50
35593;DHT22;64447;52.140;5.602;2022-11-12T18:44:17;11.70;78.20
35593;DHT22;64447;52.140;5.602;2022-11-12T18:46:43;11.60;78.40
35593;DHT22;64447;52.140;5.602;2022-11-12T18:49:09;11.60;78.40
35593;DHT22;64447;52.140;5.602;2022-11-12T18:51:34;11.90;78.50
35593;DHT22;64447;52.140;5.602;2022-11-12T18:54:00;11.60;78.30
35593;DHT22;64447;52.140;5.602;2022-11-12T18:56:26;11.60;78.40
35593;DHT22;64447;52.140;5.602;2022-11-12T18:58:51;11.50;78.30
35593;DHT22;64447;52.140;5.602;2022-11-12T19:01:19;11.50;78.70
35593;DHT22;64447;52.140;5.602;2022-11-12T19:03:45;12.00;79.20
35593;DHT22;64447;52.140;5.602;2022-11-12T19:06:12;11.50;78.70
35593;DHT22;64447;52.140;5.602;2022-11-12T19:08:38;11.50;78.60
35593;DHT22;64447;52.140;5.602;2022-11-12T19:11:07;11.40;78.50
35593;DHT22;64447;52.140;5.602;2022-11-12T19:13:33;11.40;78.60
35593;DHT22;64447;52.140;5.602;2022-11-12T19:16:16;11.30;78.60
35593;DHT22;64447;52.140;5.602;2022-11-12T19:18:42;11.30;78.50
35593;DHT22;64447;52.140;5.602;2022-11-12T19:21:10;11.20;78.60
35593;DHT22;64447;52.140;5.602;2022-11-12T19:23:36;11.10;78.70
35593;DHT22;64447;52.140;5.602;2022-11-12T19:26:04;11.00;79.60
35593;DHT22;64447;52.140;5.602;2022-11-12T19:28:30;11.00;79.50
35593;DHT22;64447;52.140;5.602;2022-11-12T19:30:55;11.40;79.90
35593;DHT22;64447;52.140;5.602;2022-11-12T19:33:21;11.00;79.30
35593;DHT22;64447;52.140;5.602;2022-11-12T19:35:47;10.90;79.10
35593;DHT22;64447;52.140;5.602;2022-11-12T19:38:13;11.00;78.80
35593;DHT22;64447;52.140;5.602;2022-11-12T19:40:40;11.10;78.80
35593;DHT22;64447;52.140;5.602;2022-11-12T19:43:05;11.00;78.80
35593;DHT22;64447;52.140;5.602;2022-11-12T19:48:53;10.90;78.80
35593;DHT22;64447;52.140;5.602;2022-11-12T19:51:19;10.90;78.80
35593;DHT22;64447;52.140;5.602;2022-11-12T19:53:44;11.50;79.30
35593;DHT22;64447;52.140;5.602;2022-11-12T19:56:12;10.80;79.00
35593;DHT22;64447;52.140;5.602;2022-11-12T19:58:39;10.80;78.90
35593;DHT22;64447;52.140;5.602;2022-11-12T20:01:09;10.80;78.80
35593;DHT22;64447;52.140;5.602;2022-11-12T20:03:36;10.80;79.20
35593;DHT22;64447;52.140;5.602;2022-11-12T20:06:06;10.70;79.50
35593;DHT22;64447;52.140;5.602;2022-11-12T20:08:32;10.70;79.40
35593;DHT22;64447;52.140;5.602;2022-11-12T20:10:58;10.70;79.10
35593;DHT22;64447;52.140;5.602;2022-11-12T20:19:49;10.60;79.10
35593;DHT22;64447;52.140;5.602;2022-11-12T20:22:15;10.50;79.20
35593;DHT22;64447;52.140;5.602;2022-11-12T20:24:40;10.50;79.00
35593;DHT22;64447;52.140;5.602;2022-11-12T20:27:06;10.40;79.20
35593;DHT22;64447;52.140;5.602;2022-11-12T20:29:32;10.30;79.50
35593;DHT22;64447;52.140;5.602;2022-11-12T20:31:57;10.30;80.00
35593;DHT22;64447;52.140;5.602;2022-11-12T20:34:23;10.30;79.80
35593;DHT22;64447;52.140;5.602;2022-11-12T20:36:49;10.20;79.80
35593;DHT22;64447;52.140;5.602;2022-11-12T20:39:14;10.30;79.60
35593;DHT22;64447;52.140;5.602;2022-11-12T20:41:40;10.40;79.80
35593;DHT22;64447;52.140;5.602;2022-11-12T20:44:05;10.20;79.60
35593;DHT22;64447;52.140;5.602;2022-11-12T20:46:31;10.20;79.50
35593;DHT22;64447;52.140;5.602;2022-11-12T20:48:57;10.20;79.50
35593;DHT22;64447;52.140;5.602;2022-11-12T20:51:25;10.20;79.50
35593;DHT22;64447;52.140;5.602;2022-11-12T20:53:54;10.20;80.20
35593;DHT22;64447;52.140;5.602;2022-11-12T20:56:22;10.20;79.80
35593;DHT22;64447;52.140;5.602;2022-11-12T20:58:48;10.10;80.20
35593;DHT22;64447;52.140;5.602;2022-11-12T21:01:16;10.10;80.00
35593;DHT22;64447;52.140;5.602;2022-11-12T21:03:43;10.10;79.80
35593;DHT22;64447;52.140;5.602;2022-11-12T21:06:11;10.10;79.60
35593;DHT22;64447;52.140;5.602;2022-11-12T21:08:38;10.10;79.70
35593;DHT22;64447;52.140;5.602;2022-11-12T21:11:06;10.00;80.60
35593;DHT22;64447;52.140;5.602;2022-11-12T21:13:33;10.10;80.50
35593;DHT22;64447;52.140;5.602;2022-11-12T21:19:21;10.00;80.60
35593;DHT22;64447;52.140;5.602;2022-11-12T21:21:47;9.90;81.10
35593;DHT22;64447;52.140;5.602;2022-11-12T21:24:12;9.90;80.80
35593;DHT22;64447;52.140;5.602;2022-11-12T21:26:39;9.90;81.20
35593;DHT22;64447;52.140;5.602;2022-11-12T21:29:04;9.80;81.90
35593;DHT22;64447;52.140;5.602;2022-11-12T21:31:31;9.90;81.50
35593;DHT22;64447;52.140;5.602;2022-11-12T21:33:59;9.80;81.20
35593;DHT22;64447;52.140;5.602;2022-11-12T21:36:28;9.80;80.80
35593;DHT22;64447;52.140;5.602;2022-11-12T21:38:54;9.80;81.00
35593;DHT22;64447;52.140;5.602;2022-11-12T21:41:23;10.10;81.30
35593;DHT22;64447;52.140;5.602;2022-11-12T21:43:49;9.80;80.90
35593;DHT22;64447;52.140;5.602;2022-11-12T21:49:36;9.80;80.50
35593;DHT22;64447;52.140;5.602;2022-11-12T21:52:02;9.80;80.60
35593;DHT22;64447;52.140;5.602;2022-11-12T21:54:28;9.80;80.30
35593;DHT22;64447;52.140;5.602;2022-11-12T21:56:54;9.80;80.30
35593;DHT22;64447;52.140;5.602;2022-11-12T21:59:19;9.80;80.40
35593;DHT22;64447;52.140;5.602;2022-11-12T22:01:45;9.70;81.20
35593;DHT22;64447;52.140;5.602;2022-11-12T22:04:11;9.60;81.20
35593;DHT22;64447;52.140;5.602;2022-11-12T22:06:36;9.60;81.40
35593;DHT22;64447;52.140;5.602;2022-11-12T22:09:03;9.60;81.80
35593;DHT22;64447;52.140;5.602;2022-11-12T22:11:29;9.60;82.20
35593;DHT22;64447;52.140;5.602;2022-11-12T22:13:55;9.60;82.40
35593;DHT22;64447;52.140;5.602;2022-11-12T22:19:42;9.70;81.80
35593;DHT22;64447;52.140;5.602;2022-11-12T22:22:08;9.80;81.60
35593;DHT22;64447;52.140;5.602;2022-11-12T22:24:34;9.70;81.40
35593;DHT22;64447;52.140;5.602;2022-11-12T22:27:00;9.80;81.20
35593;DHT22;64447;52.140;5.602;2022-11-12T22:29:25;9.70;81.30
35593;DHT22;64447;52.140;5.602;2022-11-12T22:31:51;9.70;81.30
35593;DHT22;64447;52.140;5.602;2022-11-12T22:34:16;9.70;81.90
35593;DHT22;64447;52.140;5.602;2022-11-12T22:36:42;9.70;82.10
35593;DHT22;64447;52.140;5.602;2022-11-12T22:39:08;9.60;82.00
35593;DHT22;64447;52.140;5.602;2022-11-12T22:41:33;9.60;82.00
35593;DHT22;64447;52.140;5.602;2022-11-12T22:44:00;9.20;83.00
35593;DHT22;64447;52.140;5.602;2022-11-12T22:49:48;8.80;85.50
35593;DHT22;64447;52.140;5.602;2022-11-12T22:52:34;8.70;86.30
35593;DHT22;64447;52.140;5.602;2022-11-12T22:55:00;8.90;85.80
35593;DHT22;64447;52.140;5.602;2022-11-12T22:57:26;9.00;84.80
35593;DHT22;64447;52.140;5.602;2022-11-12T22:59:51;9.30;84.20
35593;DHT22;64447;52.140;5.602;2022-11-12T23:02:17;9.10;83.70
35593;DHT22;64447;52.140;5.602;2022-11-12T23:04:42;9.10;84.10
35593;DHT22;64447;52.140;5.602;2022-11-12T23:07:08;9.10;84.10
35593;DHT22;64447;52.140;5.602;2022-11-12T23:09:33;9.10;83.90
35593;DHT22;64447;52.140;5.602;2022-11-12T23:11:59;9.20;83.50
35593;DHT22;64447;52.140;5.602;2022-11-12T23:14:25;9.20;83.10
35593;DHT22;64447;52.140;5.602;2022-11-12T23:20:12;9.30;82.70
35593;DHT22;64447;52.140;5.602;2022-11-12T23:22:38;9.30;82.80
35593;DHT22;64447;52.140;5.602;2022-11-12T23:25:04;9.20;82.60
35593;DHT22;64447;52.140;5.602;2022-11-12T23:27:29;9.20;82.70
35593;DHT22;64447;52.140;5.602;2022-11-12T23:29:55;9.30;82.40
35593;DHT22;64447;52.140;5.602;2022-11-12T23:32:20;9.30;82.70
35593;DHT22;64447;52.140;5.602;2022-11-12T23:34:46;9.30;82.60
35593;DHT22;64447;52.140;5.602;2022-11-12T23:37:11;9.20;82.40
35593;DHT22;64447;52.140;5.602;2022-11-12T23:39:37;9.20;82.00
35593;DHT22;64447;52.140;5.602;2022-11-12T23:42:02;9.20;82.00
35593;DHT22;64447;52.140;5.602;2022-11-12T23:44:28;9.20;82.20
35593;DHT22;64447;52.140;5.602;2022-11-12T23:50:15;9.20;82.10
35593;DHT22;64447;52.140;5.602;2022-11-12T23:52:41;9.10;82.10
35593;DHT22;64447;52.140;5.602;2022-11-12T23:55:07;9.10;82.10
35593;DHT22;64447;52.140;5.602;2022-11-12T23:57:32;9.10;82.00
35593;DHT22;64447;52.140;5.602;2022-11-12T23:59:58;9.10;82.10
